sensor_id;sensor_type;location;lat;lon;timestamp;pressure;altitude;pressure_sealevel;temperature;humidity
26112;BME280;13829;48.990;8.346;2022-11-15T00:00:31;100186.13;;;9.02;100.00
26112;BME280;13829;48.990;8.346;2022-11-15T00:02:58;100189.63;;;9.03;100.00
26112;BME280;13829;48.990;8.346;2022-11-15T00:05:26;100187.00;;;9.04;100.00
26112;BME280;13829;48.990;8.346;2022-11-15T00:07:53;100191.34;;;8.99;100.00
26112;BME280;13829;48.990;8.346;2022-11-15T00:10:21;100189.66;;;9.07;100.00
26112;BME280;13829;48.990;8.346;2022-11-15T00:12:48;100180.97;;;9.14;100.00
26112;BME280;13829;48.990;8.346;2022-11-15T00:15:15;100190.53;;;9.09;100.00
26112;BME280;13829;48.990;8.346;2022-11-15T00:17:42;100188.75;;;9.04;100.00
26112;BME280;13829;48.990;8.346;2022-11-15T00:20:10;100192.28;;;9.06;100.00
26112;BME280;13829;48.990;8.346;2022-11-15T00:22:37;100187.84;;;9.02;100.00
26112;BME280;13829;48.990;8.346;2022-11-15T00:25:05;100182.66;;;9.05;100.00
26112;BME280;13829;48.990;8.346;2022-11-15T00:27:34;100183.50;;;9.04;100.00
26112;BME280;13829;48.990;8.346;2022-11-15T00:30:01;100176.44;;;8.96;100.00
26112;BME280;13829;48.990;8.346;2022-11-15T00:32:31;100179.06;;;8.95;100.00
26112;BME280;13829;48.990;8.346;2022-11-15T00:34:58;100183.44;;;8.94;100.00
26112;BME280;13829;48.990;8.346;2022-11-15T00:37:25;100178.19;;;8.94;100.00
26112;BME280;13829;48.990;8.346;2022-11-15T00:39:52;100176.44;;;8.93;100.00
26112;BME280;13829;48.990;8.346;2022-11-15T00:42:18;100177.31;;;8.95;100.00
26112;BME280;13829;48.990;8.346;2022-11-15T00:44:47;100178.25;;;9.04;100.00
26112;BME280;13829;48.990;8.346;2022-11-15T00:47:14;100177.38;;;9.02;100.00
26112;BME280;13829;48.990;8.346;2022-11-15T00:49:40;100161.75;;;9.17;100.00
26112;BME280;13829;48.990;8.346;2022-11-15T00:52:07;100160.81;;;9.09;100.00
26112;BME280;13829;48.990;8.346;2022-11-15T00:54:34;100151.34;;;9.33;100.00
26112;BME280;13829;48.990;8.346;2022-11-15T00:57:01;100150.38;;;9.18;100.00
26112;BME280;13829;48.990;8.346;2022-11-15T00:59:28;100150.50;;;9.34;100.00
26112;BME280;13829;48.990;8.346;2022-11-15T01:01:56;100141.84;;;9.53;100.00
26112;BME280;13829;48.990;8.346;2022-11-15T01:04:23;100153.06;;;9.29;100.00
26112;BME280;13829;48.990;8.346;2022-11-15T01:06:50;100142.53;;;9.26;100.00
26112;BME280;13829;48.990;8.346;2022-11-15T01:09:17;100139.91;;;9.21;100.00
26112;BME280;13829;48.990;8.346;2022-11-15T01:11:44;100137.28;;;9.20;100.00
26112;BME280;13829;48.990;8.346;2022-11-15T01:14:11;100144.31;;;9.22;100.00
26112;BME280;13829;48.990;8.346;2022-11-15T01:16:38;100146.06;;;9.26;100.00
26112;BME280;13829;48.990;8.346;2022-11-15T01:19:06;100138.22;;;9.33;100.00
26112;BME280;13829;48.990;8.346;2022-11-15T01:21:33;100139.91;;;9.20;100.00
26112;BME280;13829;48.990;8.346;2022-11-15T01:24:00;100147.88;;;9.34;100.00
26112;BME280;13829;48.990;8.346;2022-11-15T01:26:27;100142.56;;;9.29;100.00
26112;BME280;13829;48.990;8.346;2022-11-15T01:28:54;100141.69;;;9.25;100.00
26112;BME280;13829;48.990;8.346;2022-11-15T01:31:21;100148.69;;;9.26;100.00
26112;BME280;13829;48.990;8.346;2022-11-15T01:33:49;100137.28;;;9.24;100.00
26112;BME280;13829;48.990;8.346;2022-11-15T01:36:20;100139.00;;;9.21;100.00
26112;BME280;13829;48.990;8.346;2022-11-15T01:38:54;100139.88;;;9.18;100.00
26112;BME280;13829;48.990;8.346;2022-11-15T01:41:25;100138.16;;;9.22;100.00
26112;BME280;13829;48.990;8.346;2022-11-15T01:43:55;100131.22;;;9.28;100.00
26112;BME280;13829;48.990;8.346;2022-11-15T01:46:29;100130.31;;;9.29;100.00
26112;BME280;13829;48.990;8.346;2022-11-15T01:49:01;100122.44;;;9.26;100.00
26112;BME280;13829;48.990;8.346;2022-11-15T01:51:32;100124.22;;;9.27;100.00
26112;BME280;13829;48.990;8.346;2022-11-15T01:54:03;100120.72;;;9.28;100.00
26112;BME280;13829;48.990;8.346;2022-11-15T01:56:43;100109.38;;;9.33;100.00
26112;BME280;13829;48.990;8.346;2022-11-15T01:59:11;100111.06;;;9.26;100.00
26112;BME280;13829;48.990;8.346;2022-11-15T02:01:39;100111.94;;;9.26;100.00
26112;BME280;13829;48.990;8.346;2022-11-15T02:04:13;100106.75;;;9.33;100.00
26112;BME280;13829;48.990;8.346;2022-11-15T02:06:44;100092.78;;;9.46;100.00
26112;BME280;13829;48.990;8.346;2022-11-15T02:09:13;100100.66;;;9.43;100.00
26112;BME280;13829;48.990;8.346;2022-11-15T02:11:41;100095.47;;;9.58;100.00
26112;BME280;13829;48.990;8.346;2022-11-15T02:14:10;100084.09;;;9.59;100.00
26112;BME280;13829;48.990;8.346;2022-11-15T02:16:48;100077.97;;;9.54;100.00
26112;BME280;13829;48.990;8.346;2022-11-15T02:19:41;100074.44;;;9.51;100.00
26112;BME280;13829;48.990;8.346;2022-11-15T02:22:33;100071.81;;;9.52;100.00
26112;BME280;13829;48.990;8.346;2022-11-15T02:25:23;100068.34;;;9.58;100.00
26112;BME280;13829;48.990;8.346;2022-11-15T02:28:28;100058.69;;;9.49;100.00
26112;BME280;13829;48.990;8.346;2022-11-15T02:31:11;100056.88;;;9.37;100.00
26112;BME280;13829;48.990;8.346;2022-11-15T02:33:52;100059.50;;;9.34;100.00
26112;BME280;13829;48.990;8.346;2022-11-15T02:36:32;100056.88;;;9.36;100.00
26112;BME280;13829;48.990;8.346;2022-11-15T02:39:09;100049.88;;;9.30;100.00
26112;BME280;13829;48.990;8.346;2022-11-15T02:41:46;100047.22;;;9.25;100.00
26112;BME280;13829;48.990;8.346;2022-11-15T02:44:21;100049.84;;;9.25;100.00
26112;BME280;13829;48.990;8.346;2022-11-15T02:46:53;100046.34;;;9.29;100.00
26112;BME280;13829;48.990;8.346;2022-11-15T02:49:43;100048.09;;;9.29;100.00
26112;BME280;13829;48.990;8.346;2022-11-15T02:52:15;100046.31;;;9.23;100.00
26112;BME280;13829;48.990;8.346;2022-11-15T02:54:53;100039.41;;;9.36;100.00
26112;BME280;13829;48.990;8.346;2022-11-15T02:57:32;100034.19;;;9.47;100.00
26112;BME280;13829;48.990;8.346;2022-11-15T03:00:08;100040.25;;;9.40;100.00
26112;BME280;13829;48.990;8.346;2022-11-15T03:03:13;100034.19;;;9.50;100.00
26112;BME280;13829;48.990;8.346;2022-11-15T03:05:53;100035.06;;;9.49;100.00
26112;BME280;13829;48.990;8.346;2022-11-15T03:08:32;100035.06;;;9.52;100.00
26112;BME280;13829;48.990;8.346;2022-11-15T03:11:08;100036.81;;;9.56;100.00
26112;BME280;13829;48.990;8.346;2022-11-15T03:13:40;100035.97;;;9.59;100.00
26112;BME280;13829;48.990;8.346;2022-11-15T03:16:19;100035.06;;;9.49;100.00
26112;BME280;13829;48.990;8.346;2022-11-15T03:18:57;100027.22;;;9.55;100.00
26112;BME280;13829;48.990;8.346;2022-11-15T03:21:29;100026.38;;;9.72;100.00
26112;BME280;13829;48.990;8.346;2022-11-15T03:24:01;100022.03;;;9.83;100.00
26112;BME280;13829;48.990;8.346;2022-11-15T03:26:31;100027.28;;;9.85;100.00
26112;BME280;13829;48.990;8.346;2022-11-15T03:29:05;100026.38;;;9.72;100.00
26112;BME280;13829;48.990;8.346;2022-11-15T03:31:37;100022.88;;;9.71;100.00
26112;BME280;13829;48.990;8.346;2022-11-15T03:34:26;100021.09;;;9.69;100.00
26112;BME280;13829;48.990;8.346;2022-11-15T03:36:54;100017.63;;;9.67;100.00
26112;BME280;13829;48.990;8.346;2022-11-15T03:39:22;100022.84;;;9.60;100.00
26112;BME280;13829;48.990;8.346;2022-11-15T03:42:02;100014.13;;;9.61;100.00
26112;BME280;13829;48.990;8.346;2022-11-15T03:44:40;100008.88;;;9.61;100.00
26112;BME280;13829;48.990;8.346;2022-11-15T03:47:16;100015.84;;;9.59;100.00
26112;BME280;13829;48.990;8.346;2022-11-15T03:49:50;100014.09;;;9.58;100.00
26112;BME280;13829;48.990;8.346;2022-11-15T03:52:20;100020.25;;;9.67;100.00
26112;BME280;13829;48.990;8.346;2022-11-15T03:54:53;100017.59;;;9.63;100.00
26112;BME280;13829;48.990;8.346;2022-11-15T03:57:21;100016.72;;;9.57;100.00
26112;BME280;13829;48.990;8.346;2022-11-15T03:59:48;100020.22;;;9.59;100.00
26112;BME280;13829;48.990;8.346;2022-11-15T04:02:15;100024.63;;;9.61;100.00
26112;BME280;13829;48.990;8.346;2022-11-15T04:04:42;100018.47;;;9.70;100.00
26112;BME280;13829;48.990;8.346;2022-11-15T04:07:10;100023.75;;;9.64;100.00
26112;BME280;13829;48.990;8.346;2022-11-15T04:09:37;100019.34;;;9.68;100.00
26112;BME280;13829;48.990;8.346;2022-11-15T04:12:25;100033.38;;;9.67;100.00
26112;BME280;13829;48.990;8.346;2022-11-15T04:15:01;100030.72;;;9.65;100.00
26112;BME280;13829;48.990;8.346;2022-11-15T04:17:39;100029.88;;;9.80;100.00
26112;BME280;13829;48.990;8.346;2022-11-15T04:20:10;100022.91;;;9.91;100.00
26112;BME280;13829;48.990;8.346;2022-11-15T04:22:58;100024.63;;;9.80;100.00
26112;BME280;13829;48.990;8.346;2022-11-15T04:25:44;100016.75;;;9.77;100.00
26112;BME280;13829;48.990;8.346;2022-11-15T04:28:12;100019.38;;;9.78;100.00
26112;BME280;13829;48.990;8.346;2022-11-15T04:30:39;100019.41;;;9.86;100.00
26112;BME280;13829;48.990;8.346;2022-11-15T04:33:06;100023.75;;;9.84;100.00
26112;BME280;13829;48.990;8.346;2022-11-15T04:35:33;100014.16;;;10.23;100.00
26112;BME280;13829;48.990;8.346;2022-11-15T04:38:05;100021.16;;;10.03;100.00
26112;BME280;13829;48.990;8.346;2022-11-15T04:40:33;100013.28;;;9.98;100.00
26112;BME280;13829;48.990;8.346;2022-11-15T04:43:00;100014.13;;;9.88;100.00
26112;BME280;13829;48.990;8.346;2022-11-15T04:45:27;100013.28;;;9.78;100.00
26112;BME280;13829;48.990;8.346;2022-11-15T04:47:54;100003.63;;;9.78;100.00
26112;BME280;13829;48.990;8.346;2022-11-15T04:50:21;99998.34;;;9.74;100.00
26112;BME280;13829;48.990;8.346;2022-11-15T04:52:52;100004.50;;;9.85;100.00
26112;BME280;13829;48.990;8.346;2022-11-15T04:55:21;100001.88;;;9.76;100.00
26112;BME280;13829;48.990;8.346;2022-11-15T04:57:57;100000.16;;;9.78;100.00
26112;BME280;13829;48.990;8.346;2022-11-15T05:00:24;99993.13;;;9.80;100.00
26112;BME280;13829;48.990;8.346;2022-11-15T05:02:51;99998.38;;;9.86;100.00
26112;BME280;13829;48.990;8.346;2022-11-15T05:05:36;100000.13;;;9.84;100.00
26112;BME280;13829;48.990;8.346;2022-11-15T05:08:03;99997.50;;;9.81;100.00
26112;BME280;13829;48.990;8.346;2022-11-15T05:10:32;99986.97;;;9.76;100.00
26112;BME280;13829;48.990;8.346;2022-11-15T05:12:59;99990.50;;;9.82;100.00
26112;BME280;13829;48.990;8.346;2022-11-15T05:15:25;99986.13;;;9.85;100.00
26112;BME280;13829;48.990;8.346;2022-11-15T05:17:57;99993.16;;;9.92;100.00
26112;BME280;13829;48.990;8.346;2022-11-15T05:20:25;99986.13;;;9.98;100.00
26112;BME280;13829;48.990;8.346;2022-11-15T05:22:53;99984.38;;;9.96;100.00
26112;BME280;13829;48.990;8.346;2022-11-15T05:25:21;99978.25;;;10.11;100.00
26112;BME280;13829;48.990;8.346;2022-11-15T05:27:49;99987.91;;;9.99;100.00
26112;BME280;13829;48.990;8.346;2022-11-15T05:30:16;99986.13;;;9.98;100.00
26112;BME280;13829;48.990;8.346;2022-11-15T05:32:44;99995.78;;;9.91;100.00
26112;BME280;13829;48.990;8.346;2022-11-15T05:35:18;99987.00;;;9.96;100.00
26112;BME280;13829;48.990;8.346;2022-11-15T05:37:46;99987.00;;;9.84;100.00
26112;BME280;13829;48.990;8.346;2022-11-15T05:40:15;99983.50;;;9.82;100.00
26112;BME280;13829;48.990;8.346;2022-11-15T05:42:42;99979.13;;;9.90;100.00
26112;BME280;13829;48.990;8.346;2022-11-15T05:45:11;99980.88;;;9.91;100.00
26112;BME280;13829;48.990;8.346;2022-11-15T05:47:40;99980.84;;;9.79;100.00
26112;BME280;13829;48.990;8.346;2022-11-15T05:50:11;99980.00;;;9.78;100.00
26112;BME280;13829;48.990;8.346;2022-11-15T05:52:39;99983.50;;;9.76;100.00
26112;BME280;13829;48.990;8.346;2022-11-15T05:55:08;99979.97;;;9.71;100.00
26112;BME280;13829;48.990;8.346;2022-11-15T05:57:36;99992.25;;;9.79;100.00
26112;BME280;13829;48.990;8.346;2022-11-15T06:00:05;99989.63;;;9.72;100.00
26112;BME280;13829;48.990;8.346;2022-11-15T06:02:33;99993.09;;;9.68;100.00
26112;BME280;13829;48.990;8.346;2022-11-15T06:05:00;99991.34;;;9.60;100.00
26112;BME280;13829;48.990;8.346;2022-11-15T06:07:29;99989.56;;;9.53;100.00
26112;BME280;13829;48.990;8.346;2022-11-15T06:09:56;99984.34;;;9.59;100.00
26112;BME280;13829;48.990;8.346;2022-11-15T06:12:22;99986.94;;;9.55;100.00
26112;BME280;13829;48.990;8.346;2022-11-15T06:14:49;99982.56;;;9.43;100.00
26112;BME280;13829;48.990;8.346;2022-11-15T06:17:16;99988.69;;;9.50;100.00
26112;BME280;13829;48.990;8.346;2022-11-15T06:19:44;99977.28;;;9.46;100.00
26112;BME280;13829;48.990;8.346;2022-11-15T06:22:11;99970.31;;;9.46;100.00
26112;BME280;13829;48.990;8.346;2022-11-15T06:24:38;99968.56;;;9.47;100.00
26112;BME280;13829;48.990;8.346;2022-11-15T06:27:05;99971.22;;;9.58;100.00
26112;BME280;13829;48.990;8.346;2022-11-15T06:29:32;99965.09;;;9.54;100.00
26112;BME280;13829;48.990;8.346;2022-11-15T06:31:59;99971.19;;;9.47;100.00
26112;BME280;13829;48.990;8.346;2022-11-15T06:34:26;99966.78;;;9.46;100.00
26112;BME280;13829;48.990;8.346;2022-11-15T06:36:54;99973.81;;;9.47;100.00
26112;BME280;13829;48.990;8.346;2022-11-15T06:39:21;99970.31;;;9.51;100.00
26112;BME280;13829;48.990;8.346;2022-11-15T06:41:48;99966.84;;;9.61;100.00
26112;BME280;13829;48.990;8.346;2022-11-15T06:44:15;99964.22;;;9.66;100.00
26112;BME280;13829;48.990;8.346;2022-11-15T06:46:42;99965.09;;;9.68;100.00
26112;BME280;13829;48.990;8.346;2022-11-15T06:49:08;99963.34;;;9.64;100.00
26112;BME280;13829;48.990;8.346;2022-11-15T06:51:35;99962.47;;;9.68;100.00
26112;BME280;13829;48.990;8.346;2022-11-15T06:54:04;99959.88;;;9.73;100.00
26112;BME280;13829;48.990;8.346;2022-11-15T06:56:31;99973.84;;;9.84;100.00
26112;BME280;13829;48.990;8.346;2022-11-15T06:58:58;99975.66;;;9.87;100.00
26112;BME280;13829;48.990;8.346;2022-11-15T07:01:25;99971.25;;;9.92;100.00
26112;BME280;13829;48.990;8.346;2022-11-15T07:03:51;99976.50;;;9.93;100.00
26112;BME280;13829;48.990;8.346;2022-11-15T07:06:18;99966.88;;;9.99;100.00
26112;BME280;13829;48.990;8.346;2022-11-15T07:08:45;99976.50;;;9.86;100.00
26112;BME280;13829;48.990;8.346;2022-11-15T07:11:13;99973.00;;;9.81;100.00
26112;BME280;13829;48.990;8.346;2022-11-15T07:13:40;99978.25;;;9.93;100.00
26112;BME280;13829;48.990;8.346;2022-11-15T07:16:09;99984.41;;;10.00;100.00
26112;BME280;13829;48.990;8.346;2022-11-15T07:18:38;99982.66;;;9.97;100.00
26112;BME280;13829;48.990;8.346;2022-11-15T07:21:09;99984.41;;;10.06;100.00
26112;BME280;13829;48.990;8.346;2022-11-15T07:23:36;99991.41;;;10.16;100.00
26112;BME280;13829;48.990;8.346;2022-11-15T07:26:05;99990.53;;;10.36;100.00
26112;BME280;13829;48.990;8.346;2022-11-15T07:28:34;99992.28;;;10.52;100.00
26112;BME280;13829;48.990;8.346;2022-11-15T07:31:02;99986.16;;;10.44;100.00
26112;BME280;13829;48.990;8.346;2022-11-15T07:33:30;99977.38;;;10.51;100.00
26112;BME280;13829;48.990;8.346;2022-11-15T07:35:59;99982.66;;;10.42;100.00
26112;BME280;13829;48.990;8.346;2022-11-15T07:38:28;99983.50;;;10.32;100.00
26112;BME280;13829;48.990;8.346;2022-11-15T07:41:02;99982.66;;;10.36;100.00
26112;BME280;13829;48.990;8.346;2022-11-15T07:43:30;99981.75;;;10.31;100.00
26112;BME280;13829;48.990;8.346;2022-11-15T07:46:05;99988.78;;;10.24;100.00
26112;BME280;13829;48.990;8.346;2022-11-15T07:48:35;99990.50;;;10.29;100.00
26112;BME280;13829;48.990;8.346;2022-11-15T07:51:02;99984.41;;;10.27;100.00
26112;BME280;13829;48.990;8.346;2022-11-15T07:53:29;99986.13;;;10.32;100.00
26112;BME280;13829;48.990;8.346;2022-11-15T07:55:56;99978.25;;;10.33;100.00
26112;BME280;13829;48.990;8.346;2022-11-15T07:58:23;99987.94;;;10.39;100.00
26112;BME280;13829;48.990;8.346;2022-11-15T08:00:50;99985.28;;;10.48;100.00
26112;BME280;13829;48.990;8.346;2022-11-15T08:03:18;99980.00;;;10.56;100.00
26112;BME280;13829;48.990;8.346;2022-11-15T08:05:50;99971.22;;;10.60;100.00
26112;BME280;13829;48.990;8.346;2022-11-15T08:08:18;99970.38;;;10.53;100.00
26112;BME280;13829;48.990;8.346;2022-11-15T08:10:45;99968.63;;;10.46;100.00
26112;BME280;13829;48.990;8.346;2022-11-15T08:13:13;99975.66;;;10.44;100.00
26112;BME280;13829;48.990;8.346;2022-11-15T08:15:40;99973.00;;;10.53;100.00
26112;BME280;13829;48.990;8.346;2022-11-15T08:18:15;99966.88;;;10.43;100.00
26112;BME280;13829;48.990;8.346;2022-11-15T08:20:43;99974.75;;;10.67;100.00
26112;BME280;13829;48.990;8.346;2022-11-15T08:23:11;99975.56;;;10.87;100.00
26112;BME280;13829;48.990;8.346;2022-11-15T08:25:39;99976.34;;;11.08;100.00
26112;BME280;13829;48.990;8.346;2022-11-15T08:28:08;99970.94;;;11.36;100.00
26112;BME280;13829;48.990;8.346;2022-11-15T08:30:40;99970.97;;;11.33;100.00
26112;BME280;13829;48.990;8.346;2022-11-15T08:33:12;99966.47;;;11.53;100.00
26112;BME280;13829;48.990;8.346;2022-11-15T08:35:39;99963.78;;;11.61;100.00
26112;BME280;13829;48.990;8.346;2022-11-15T08:38:08;99963.72;;;11.70;100.00
26112;BME280;13829;48.990;8.346;2022-11-15T08:40:35;99960.97;;;11.84;100.00
26112;BME280;13829;48.990;8.346;2022-11-15T08:43:03;99954.75;;;12.02;100.00
26112;BME280;13829;48.990;8.346;2022-11-15T08:45:30;99954.66;;;12.12;100.00
26112;BME280;13829;48.990;8.346;2022-11-15T08:48:00;99963.44;;;12.15;100.00
26112;BME280;13829;48.990;8.346;2022-11-15T08:50:27;99953.75;;;12.17;100.00
26112;BME280;13829;48.990;8.346;2022-11-15T08:52:54;99957.28;;;12.15;100.00
26112;BME280;13829;48.990;8.346;2022-11-15T08:55:23;99951.13;;;12.14;100.00
26112;BME280;13829;48.990;8.346;2022-11-15T08:57:50;99952.06;;;12.07;100.00
26112;BME280;13829;48.990;8.346;2022-11-15T09:00:17;99954.72;;;12.09;100.00
26112;BME280;13829;48.990;8.346;2022-11-15T09:02:45;99945.84;;;12.16;100.00
26112;BME280;13829;48.990;8.346;2022-11-15T09:05:12;99958.94;;;12.23;100.00
26112;BME280;13829;48.990;8.346;2022-11-15T09:07:41;99956.25;;;12.30;100.00
26112;BME280;13829;48.990;8.346;2022-11-15T09:10:09;99943.91;;;12.35;100.00
26112;BME280;13829;48.990;8.346;2022-11-15T09:12:37;99933.28;;;12.41;100.00
26112;BME280;13829;48.990;8.346;2022-11-15T09:15:06;99946.47;;;12.44;100.00
26112;BME280;13829;48.990;8.346;2022-11-15T09:17:33;99931.53;;;12.43;100.00
26112;BME280;13829;48.990;8.346;2022-11-15T09:20:00;99937.72;;;12.39;100.00
26112;BME280;13829;48.990;8.346;2022-11-15T09:22:27;99935.97;;;12.38;100.00
26112;BME280;13829;48.990;8.346;2022-11-15T09:24:54;99942.19;;;12.34;100.00
26112;BME280;13829;48.990;8.346;2022-11-15T09:27:21;99935.03;;;12.42;100.00
26112;BME280;13829;48.990;8.346;2022-11-15T09:29:49;99932.41;;;12.42;100.00
26112;BME280;13829;48.990;8.346;2022-11-15T09:32:16;99929.66;;;12.51;100.00
26112;BME280;13829;48.990;8.346;2022-11-15T09:34:43;99925.25;;;12.56;100.00
26112;BME280;13829;48.990;8.346;2022-11-15T09:37:10;99933.06;;;12.64;100.00
26112;BME280;13829;48.990;8.346;2022-11-15T09:39:37;99925.91;;;12.76;100.00
26112;BME280;13829;48.990;8.346;2022-11-15T09:42:27;99928.41;;;12.86;100.00
26112;BME280;13829;48.990;8.346;2022-11-15T09:45:12;99914.34;;;12.84;100.00
26112;BME280;13829;48.990;8.346;2022-11-15T09:48:03;99915.25;;;12.83;100.00
26112;BME280;13829;48.990;8.346;2022-11-15T09:50:41;99921.41;;;12.82;100.00
26112;BME280;13829;48.990;8.346;2022-11-15T09:53:34;99920.47;;;12.89;100.00
26112;BME280;13829;48.990;8.346;2022-11-15T09:56:20;99923.84;;;12.99;100.00
26112;BME280;13829;48.990;8.346;2022-11-15T09:58:59;99922.19;;;12.92;100.00
26112;BME280;13829;48.990;8.346;2022-11-15T10:01:43;99923.19;;;12.83;100.00
26112;BME280;13829;48.990;8.346;2022-11-15T10:04:11;99924.91;;;12.84;100.00
26112;BME280;13829;48.990;8.346;2022-11-15T10:06:49;99929.31;;;12.84;100.00
26112;BME280;13829;48.990;8.346;2022-11-15T10:09:25;99923.22;;;12.79;100.00
26112;BME280;13829;48.990;8.346;2022-11-15T10:11:54;99923.25;;;12.77;100.00
26112;BME280;13829;48.990;8.346;2022-11-15T10:14:25;99935.53;;;12.80;100.00
26112;BME280;13829;48.990;8.346;2022-11-15T10:17:42;99925.00;;;12.78;100.00
26112;BME280;13829;48.990;8.346;2022-11-15T10:20:20;99928.47;;;12.80;100.00
26112;BME280;13829;48.990;8.346;2022-11-15T10:22:52;99926.72;;;12.79;100.00
26112;BME280;13829;48.990;8.346;2022-11-15T10:25:23;99920.53;;;12.82;100.00
26112;BME280;13829;48.990;8.346;2022-11-15T10:27:56;99914.34;;;12.84;100.00
26112;BME280;13829;48.990;8.346;2022-11-15T10:30:31;99916.06;;;12.88;100.00
26112;BME280;13829;48.990;8.346;2022-11-15T10:33:12;99915.19;;;12.89;100.00
26112;BME280;13829;48.990;8.346;2022-11-15T10:35:40;99900.19;;;12.92;100.00
26112;BME280;13829;48.990;8.346;2022-11-15T10:38:10;99902.78;;;12.96;100.00
26112;BME280;13829;48.990;8.346;2022-11-15T10:40:40;99900.13;;;12.96;100.00
26112;BME280;13829;48.990;8.346;2022-11-15T10:43:16;99895.66;;;13.01;100.00
26112;BME280;13829;48.990;8.346;2022-11-15T10:45:44;99894.69;;;13.07;100.00
26112;BME280;13829;48.990;8.346;2022-11-15T10:48:28;99889.25;;;13.19;100.00
26112;BME280;13829;48.990;8.346;2022-11-15T10:50:55;99887.34;;;13.31;100.00
26112;BME280;13829;48.990;8.346;2022-11-15T10:53:35;99877.47;;;13.47;100.00
26112;BME280;13829;48.990;8.346;2022-11-15T10:56:12;99872.69;;;13.69;100.00
26112;BME280;13829;48.990;8.346;2022-11-15T10:58:43;99862.81;;;13.80;100.00
26112;BME280;13829;48.990;8.346;2022-11-15T11:01:15;99858.69;;;13.64;100.00
26112;BME280;13829;48.990;8.346;2022-11-15T11:03:45;99849.56;;;13.83;100.00
26112;BME280;13829;48.990;8.346;2022-11-15T11:06:24;99849.47;;;13.90;100.00
26112;BME280;13829;48.990;8.346;2022-11-15T11:08:57;99833.47;;;13.96;100.00
26112;BME280;13829;48.990;8.346;2022-11-15T11:11:25;99838.88;;;13.90;100.00
26112;BME280;13829;48.990;8.346;2022-11-15T11:14:19;99832.59;;;13.95;100.00
26112;BME280;13829;48.990;8.346;2022-11-15T11:16:50;99830.81;;;13.97;100.00
26112;BME280;13829;48.990;8.346;2022-11-15T11:19:49;99822.19;;;13.84;100.00
26112;BME280;13829;48.990;8.346;2022-11-15T11:22:26;99808.19;;;13.79;100.00
26112;BME280;13829;48.990;8.346;2022-11-15T11:25:15;99810.13;;;13.71;100.00
26112;BME280;13829;48.990;8.346;2022-11-15T11:28:05;99801.97;;;13.83;100.00
26112;BME280;13829;48.990;8.346;2022-11-15T11:30:50;99792.09;;;13.95;100.00
26112;BME280;13829;48.990;8.346;2022-11-15T11:33:25;99792.88;;;14.00;100.00
26112;BME280;13829;48.990;8.346;2022-11-15T11:36:16;99787.47;;;14.06;100.00
26112;BME280;13829;48.990;8.346;2022-11-15T11:39:01;99777.00;;;14.00;100.00
26112;BME280;13829;48.990;8.346;2022-11-15T11:41:57;99773.41;;;14.04;100.00
26112;BME280;13829;48.990;8.346;2022-11-15T11:44:41;99774.91;;;14.17;100.00
26112;BME280;13829;48.990;8.346;2022-11-15T11:47:22;99772.38;;;14.10;100.00
26112;BME280;13829;48.990;8.346;2022-11-15T11:49:52;99767.03;;;14.14;100.00
26112;BME280;13829;48.990;8.346;2022-11-15T11:52:28;99768.03;;;14.07;100.00
26112;BME280;13829;48.990;8.346;2022-11-15T11:55:11;99769.78;;;14.08;100.00
26112;BME280;13829;48.990;8.346;2022-11-15T11:57:47;99769.78;;;14.08;100.00
26112;BME280;13829;48.990;8.346;2022-11-15T12:00:21;99768.00;;;14.10;100.00
26112;BME280;13829;48.990;8.346;2022-11-15T12:03:03;99768.00;;;14.10;100.00
26112;BME280;13829;48.990;8.346;2022-11-15T12:05:39;99753.91;;;14.08;100.00
26112;BME280;13829;48.990;8.346;2022-11-15T12:08:26;99754.69;;;14.13;100.00
26112;BME280;13829;48.990;8.346;2022-11-15T12:11:04;99752.88;;;14.17;100.00
26112;BME280;13829;48.990;8.346;2022-11-15T12:13:35;99744.88;;;14.20;100.00
26112;BME280;13829;48.990;8.346;2022-11-15T12:16:11;99754.28;;;14.33;100.00
26112;BME280;13829;48.990;8.346;2022-11-15T12:18:42;99740.91;;;14.41;100.00
26112;BME280;13829;48.990;8.346;2022-11-15T12:21:18;99743.59;;;14.40;100.00
26112;BME280;13829;48.990;8.346;2022-11-15T12:24:00;99737.47;;;14.36;100.00
26112;BME280;13829;48.990;8.346;2022-11-15T12:26:36;99728.78;;;14.31;100.00
26112;BME280;13829;48.990;8.346;2022-11-15T12:29:13;99725.41;;;14.24;100.00
26112;BME280;13829;48.990;8.346;2022-11-15T12:31:48;99721.69;;;14.33;100.00
26112;BME280;13829;48.990;8.346;2022-11-15T12:34:38;99713.81;;;14.30;100.00
26112;BME280;13829;48.990;8.346;2022-11-15T12:40:33;99717.75;;;14.10;100.00
26112;BME280;13829;48.990;8.346;2022-11-15T12:43:36;99712.22;;;14.21;100.00
26112;BME280;13829;48.990;8.346;2022-11-15T12:46:10;99697.97;;;14.28;100.00
26112;BME280;13829;48.990;8.346;2022-11-15T12:48:53;99699.75;;;14.28;100.00
26112;BME280;13829;48.990;8.346;2022-11-15T12:54:57;99686.19;;;14.02;100.00
26112;BME280;13829;48.990;8.346;2022-11-15T12:57:42;99679.63;;;14.21;100.00
26112;BME280;13829;48.990;8.346;2022-11-15T13:00:42;99677.34;;;14.03;100.00
26112;BME280;13829;48.990;8.346;2022-11-15T13:03:26;99669.38;;;14.05;100.00
26112;BME280;13829;48.990;8.346;2022-11-15T13:06:08;99673.66;;;14.11;100.00
26112;BME280;13829;48.990;8.346;2022-11-15T13:08:43;99661.50;;;14.03;100.00
26112;BME280;13829;48.990;8.346;2022-11-15T13:11:50;99659.66;;;14.06;100.00
26112;BME280;13829;48.990;8.346;2022-11-15T13:14:50;99651.94;;;13.96;100.00
26112;BME280;13829;48.990;8.346;2022-11-15T13:17:31;99651.03;;;13.97;100.00
26112;BME280;13829;48.990;8.346;2022-11-15T13:20:20;99630.63;;;14.04;100.00
26112;BME280;13829;48.990;8.346;2022-11-15T13:22:51;99630.72;;;13.99;100.00
26112;BME280;13829;48.990;8.346;2022-11-15T13:25:48;99626.63;;;13.86;100.00
26112;BME280;13829;48.990;8.346;2022-11-15T13:28:30;99626.69;;;13.81;100.00